createdAt,value
2018-12-22T00:00:43.612Z,1004.64
2018-12-22T00:01:43.600Z,1004.65
2018-12-22T00:02:43.579Z,1004.66
2018-12-22T00:03:43.579Z,1004.65
2018-12-22T00:04:43.543Z,1004.72
2018-12-22T00:05:43.524Z,1004.68
2018-12-22T00:06:43.509Z,1004.65
2018-12-22T00:07:43.492Z,1004.69
2018-12-22T00:08:43.484Z,1004.67
2018-12-22T00:09:43.466Z,1004.72
2018-12-22T00:10:43.440Z,1004.68
2018-12-22T00:11:43.416Z,1004.67
2018-12-22T00:12:43.390Z,1004.67
2018-12-22T00:13:43.397Z,1004.68
2018-12-22T00:14:43.359Z,1004.67
2018-12-22T00:15:43.345Z,1004.65
2018-12-22T00:16:43.321Z,1004.64
2018-12-22T00:17:43.307Z,1004.66
2018-12-22T00:18:43.288Z,1004.59
2018-12-22T00:19:43.285Z,1004.60
2018-12-22T00:20:43.249Z,1004.57
2018-12-22T00:21:43.228Z,1004.60
2018-12-22T00:22:43.215Z,1004.58
2018-12-22T00:23:43.196Z,1004.62
2018-12-22T00:24:43.194Z,1004.62
2018-12-22T00:25:43.155Z,1004.60
2018-12-22T00:26:43.144Z,1004.59
2018-12-22T00:27:43.123Z,1004.66
2018-12-22T00:28:43.102Z,1004.61
2018-12-22T00:29:43.085Z,1004.67
2018-12-22T00:30:43.090Z,1004.67
2018-12-22T00:31:43.054Z,1004.71
2018-12-22T00:32:43.032Z,1004.65
2018-12-22T00:33:43.016Z,1004.66
2018-12-22T00:34:42.992Z,1004.65
2018-12-22T00:35:42.989Z,1004.66
2018-12-22T00:36:42.981Z,1004.66
2018-12-22T00:37:42.946Z,1004.66
2018-12-22T00:38:42.925Z,1004.69
2018-12-22T00:39:42.906Z,1004.66
2018-12-22T00:40:42.885Z,1004.68
2018-12-22T00:41:42.881Z,1004.70
2018-12-22T00:42:42.861Z,1004.72
2018-12-22T00:43:42.831Z,1004.66
2018-12-22T00:44:42.811Z,1004.62
2018-12-22T00:45:42.797Z,1004.62
2018-12-22T00:46:42.791Z,1004.65
2018-12-22T00:47:42.757Z,1004.63
2018-12-22T00:48:42.737Z,1004.62
2018-12-22T00:49:42.745Z,1004.64
2018-12-22T00:50:42.701Z,1004.65
2018-12-22T00:51:42.679Z,1004.58
2018-12-22T00:52:42.672Z,1004.58
2018-12-22T00:53:42.671Z,1004.60
2018-12-22T00:54:42.629Z,1004.61
2018-12-22T00:55:42.607Z,1004.64
2018-12-22T00:56:42.591Z,1004.66
2018-12-22T00:57:42.572Z,1004.61
2018-12-22T00:58:42.565Z,1004.62
2018-12-22T00:59:42.549Z,1004.58
2018-12-22T01:00:42.536Z,1004.59
2018-12-22T01:01:42.499Z,1004.62
2018-12-22T01:02:42.483Z,1004.59
2018-12-22T01:03:42.461Z,1004.61
2018-12-22T01:04:42.440Z,1004.61
2018-12-22T01:05:42.458Z,1004.58
2018-12-22T01:06:42.407Z,1004.52
2018-12-22T01:07:42.386Z,1004.62
2018-12-22T01:08:42.369Z,1004.60
2018-12-22T01:09:42.348Z,1004.59
2018-12-22T01:10:42.346Z,1004.61
2018-12-22T01:11:42.308Z,1004.60
2018-12-22T01:12:42.300Z,1004.65
2018-12-22T01:13:42.275Z,1004.62
2018-12-22T01:14:42.262Z,1004.68
2018-12-22T01:15:42.237Z,1004.65
2018-12-22T01:16:42.249Z,1004.65
2018-12-22T01:17:42.198Z,1004.63
2018-12-22T01:18:42.175Z,1004.65
2018-12-22T01:19:42.160Z,1004.67
2018-12-22T01:20:42.144Z,1004.65
2018-12-22T01:21:42.142Z,1004.66
2018-12-22T01:22:42.101Z,1004.63
2018-12-22T01:23:42.082Z,1004.62
2018-12-22T01:24:42.064Z,1004.57
2018-12-22T01:25:42.049Z,1004.60
2018-12-22T01:26:42.046Z,1004.53
2018-12-22T01:27:42.026Z,1004.52
2018-12-22T01:28:41.995Z,1004.50
2018-12-22T01:29:41.971Z,1004.51
2018-12-22T01:30:41.951Z,1004.50
2018-12-22T01:31:41.929Z,1004.44
2018-12-22T01:32:41.931Z,1004.45
2018-12-22T01:33:41.894Z,1004.44
2018-12-22T01:34:41.874Z,1004.42
2018-12-22T01:35:41.856Z,1004.43
2018-12-22T01:36:41.847Z,1004.46
2018-12-22T01:37:41.847Z,1004.50
2018-12-22T01:38:41.805Z,1004.51
2018-12-22T01:39:41.782Z,1004.51
2018-12-22T01:40:41.783Z,1004.48
2018-12-22T01:41:41.744Z,1004.52
2018-12-22T01:42:41.722Z,1004.53
2018-12-22T01:43:41.720Z,1004.53
2018-12-22T01:44:41.684Z,1004.43
2018-12-22T01:45:41.681Z,1004.48
2018-12-22T01:46:41.746Z,1004.50
2018-12-22T01:47:41.704Z,1004.49
2018-12-22T01:48:41.621Z,1004.44
2018-12-22T01:49:41.591Z,1004.48
2018-12-22T01:50:41.584Z,1004.47
2018-12-22T01:51:41.553Z,1004.46
2018-12-22T01:52:41.533Z,1004.42
2018-12-22T01:53:41.515Z,1004.41
2018-12-22T01:54:41.493Z,1004.40
2018-12-22T01:55:41.490Z,1004.37
2018-12-22T01:56:41.459Z,1004.38
2018-12-22T01:57:41.440Z,1004.37
2018-12-22T01:58:47.841Z,1004.39
2018-12-22T01:59:41.394Z,1004.46
2018-12-22T02:00:41.417Z,1004.39
2018-12-22T02:01:41.367Z,1004.49
2018-12-22T02:02:41.343Z,1004.47
2018-12-22T02:03:41.328Z,1004.49
2018-12-22T02:04:41.302Z,1004.44
2018-12-22T02:05:41.285Z,1004.42
2018-12-22T02:06:41.283Z,1004.40
2018-12-22T02:07:41.252Z,1004.33
2018-12-22T02:08:41.234Z,1004.36
2018-12-22T02:09:41.212Z,1004.36
2018-12-22T02:10:41.192Z,1004.32
2018-12-22T02:11:41.190Z,1004.34
2018-12-22T02:12:41.154Z,1004.28
2018-12-22T02:13:41.144Z,1004.25
2018-12-22T02:14:41.116Z,1004.17
2018-12-22T02:15:41.099Z,1004.16
2018-12-22T02:16:41.079Z,1004.17
2018-12-22T02:17:41.076Z,1004.21
2018-12-22T02:18:41.060Z,1004.18
2018-12-22T02:19:41.018Z,1004.18
2018-12-22T02:20:41.001Z,1004.17
2018-12-22T02:21:40.979Z,1004.18
2018-12-22T02:22:40.966Z,1004.11
2018-12-22T02:23:40.964Z,1004.16
2018-12-22T02:24:40.926Z,1004.09
2018-12-22T02:25:40.906Z,1004.13
2018-12-22T02:26:40.886Z,1004.12
2018-12-22T02:27:40.869Z,1004.08
2018-12-22T02:28:40.852Z,1004.04
2018-12-22T02:29:40.848Z,1004.03
2018-12-22T02:30:40.818Z,1004.01
2018-12-22T02:31:40.816Z,1004.02
2018-12-22T02:32:40.778Z,1004.00
2018-12-22T02:33:40.754Z,1004.01
2018-12-22T02:34:40.735Z,1003.86
2018-12-22T02:35:40.715Z,1004.00
2018-12-22T02:36:40.709Z,1003.98
2018-12-22T02:37:40.707Z,1004.10
2018-12-22T02:38:40.662Z,1004.01
2018-12-22T02:39:40.644Z,1003.99
2018-12-22T02:40:40.619Z,1003.99
2018-12-22T02:41:40.609Z,1003.96
2018-12-22T02:42:40.588Z,1003.98
2018-12-22T02:43:40.630Z,1003.97
2018-12-22T02:44:41.229Z,1003.99
2018-12-22T02:45:40.534Z,1003.89
2018-12-22T02:46:40.538Z,1003.99
2018-12-22T02:47:40.541Z,1003.88
2018-12-22T02:48:40.478Z,1003.90
2018-12-22T02:49:40.465Z,1003.85
2018-12-22T02:50:40.441Z,1003.82
2018-12-22T02:51:40.423Z,1003.83
2018-12-22T02:52:40.412Z,1003.89
2018-12-22T02:53:40.380Z,1003.78
2018-12-22T02:54:40.362Z,1003.83
2018-12-22T02:55:40.342Z,1003.86
2018-12-22T02:56:40.349Z,1003.77
2018-12-22T02:57:40.306Z,1003.84
2018-12-22T02:58:40.286Z,1003.77
2018-12-22T02:59:40.274Z,1003.77
2018-12-22T03:00:40.248Z,1003.72
2018-12-22T03:01:40.229Z,1003.68
2018-12-22T03:02:40.232Z,1003.68
2018-12-22T03:03:40.198Z,1003.65
2018-12-22T03:04:40.171Z,1003.66
2018-12-22T03:05:40.167Z,1003.61
2018-12-22T03:06:40.758Z,1003.57
2018-12-22T03:07:40.120Z,1003.56
2018-12-22T03:08:40.201Z,1003.48
2018-12-22T03:09:40.081Z,1003.58
2018-12-22T03:10:40.119Z,1003.56
2018-12-22T03:11:40.047Z,1003.57
2018-12-22T03:12:40.024Z,1003.51
2018-12-22T03:13:40.003Z,1003.56
2018-12-22T03:14:40.007Z,1003.49
2018-12-22T03:15:39.976Z,1003.52
2018-12-22T03:16:39.953Z,1003.45
2018-12-22T03:17:39.934Z,1003.42
2018-12-22T03:18:39.907Z,1003.37
2018-12-22T03:19:39.894Z,1003.36
2018-12-22T03:20:39.890Z,1003.47
2018-12-22T03:21:39.862Z,1003.37
2018-12-22T03:22:39.841Z,1003.37
2018-12-22T03:23:39.817Z,1003.36
2018-12-22T03:24:39.802Z,1003.30
2018-12-22T03:25:39.797Z,1003.35
2018-12-22T03:26:39.766Z,1003.35
2018-12-22T03:27:39.746Z,1003.38
2018-12-22T03:28:39.746Z,1003.37
2018-12-22T03:29:39.705Z,1003.39
2018-12-22T03:30:39.692Z,1003.37
2018-12-22T03:31:39.672Z,1003.39
2018-12-22T03:32:39.651Z,1003.37
2018-12-22T03:33:39.634Z,1003.27
2018-12-22T03:34:39.631Z,1003.27
2018-12-22T03:35:39.591Z,1003.30
2018-12-22T03:36:39.576Z,1003.32
2018-12-22T03:37:39.553Z,1003.22
2018-12-22T03:38:39.539Z,1003.30
2018-12-22T03:39:39.517Z,1003.31
2018-12-22T03:40:39.513Z,1003.37
2018-12-22T03:41:39.483Z,1003.49
2018-12-22T03:42:39.475Z,1003.42
2018-12-22T03:43:39.444Z,1003.47
2018-12-22T03:44:39.427Z,1003.36
2018-12-22T03:45:39.402Z,1003.34
2018-12-22T03:46:39.400Z,1003.33
2018-12-22T03:47:39.360Z,1003.38
2018-12-22T03:48:39.343Z,1003.35
2018-12-22T03:49:39.352Z,1003.17
2018-12-22T03:50:39.312Z,1003.00
2018-12-22T03:51:39.319Z,1003.03
2018-12-22T03:52:39.267Z,1003.12
2018-12-22T03:53:39.268Z,1003.11
2018-12-22T03:54:39.230Z,1003.13
2018-12-22T03:55:39.210Z,1003.13
2018-12-22T03:56:39.203Z,1003.08
2018-12-22T03:57:39.188Z,1003.11
2018-12-22T03:58:39.156Z,1003.12
2018-12-22T03:59:39.131Z,1003.11
2018-12-22T04:00:39.110Z,1003.16
2018-12-22T04:01:39.094Z,1003.02
2018-12-22T04:02:39.092Z,1003.06
2018-12-22T04:03:39.060Z,1003.06
2018-12-22T04:04:39.033Z,1003.09
2018-12-22T04:05:39.021Z,1003.11
2018-12-22T04:06:39.000Z,1003.17
2018-12-22T04:07:38.973Z,1003.20
2018-12-22T04:08:38.977Z,1003.19
2018-12-22T04:09:38.946Z,1003.21
2018-12-22T04:10:38.921Z,1003.19
2018-12-22T04:11:38.902Z,1003.20
2018-12-22T04:12:38.881Z,1003.20
2018-12-22T04:13:38.889Z,1003.15
2018-12-22T04:14:38.841Z,1003.24
2018-12-22T04:15:38.821Z,1003.25
2018-12-22T04:16:38.819Z,1003.16
2018-12-22T04:17:38.785Z,1003.22
2018-12-22T04:18:38.783Z,1003.30
2018-12-22T04:19:38.750Z,1003.29
2018-12-22T04:20:38.788Z,1003.23
2018-12-22T04:21:38.724Z,1003.27
2018-12-22T04:22:39.200Z,1003.23
2018-12-22T04:23:38.670Z,1003.17
2018-12-22T04:24:38.666Z,1003.26
2018-12-22T04:25:38.627Z,1003.26
2018-12-22T04:26:38.615Z,1003.31
2018-12-22T04:27:38.587Z,1003.27
2018-12-22T04:28:38.573Z,1003.23
2018-12-22T04:29:38.554Z,1003.24
2018-12-22T04:30:38.559Z,1003.19
2018-12-22T04:31:38.530Z,1003.25
2018-12-22T04:32:38.494Z,1003.34
2018-12-22T04:33:38.478Z,1003.26
2018-12-22T04:34:38.460Z,1003.29
2018-12-22T04:35:38.454Z,1003.27
2018-12-22T04:36:38.439Z,1003.37
2018-12-22T04:37:38.401Z,1003.41
2018-12-22T04:38:38.395Z,1003.40
2018-12-22T04:39:38.369Z,1003.46
2018-12-22T04:40:38.338Z,1003.52
2018-12-22T04:41:38.321Z,1003.59
2018-12-22T04:42:38.322Z,1003.56
2018-12-22T04:43:38.284Z,1003.44
2018-12-22T04:44:38.267Z,1003.56
2018-12-22T04:45:38.242Z,1003.58
2018-12-22T04:46:38.253Z,1003.56
2018-12-22T04:47:39.999Z,1003.51
2018-12-22T04:48:38.186Z,1003.54
2018-12-22T04:49:38.168Z,1003.42
2018-12-22T04:50:38.149Z,1003.62
2018-12-22T04:51:38.128Z,1003.47
2018-12-22T04:52:38.120Z,1003.48
2018-12-22T04:53:38.121Z,1003.56
2018-12-22T04:54:38.093Z,1003.60
2018-12-22T04:55:38.053Z,1003.63
2018-12-22T04:56:38.031Z,1003.61
2018-12-22T04:57:38.018Z,1003.59
2018-12-22T04:58:38.016Z,1003.63
2018-12-22T04:59:42.980Z,1003.61
2018-12-22T05:00:37.960Z,1003.69
2018-12-22T05:01:37.939Z,1003.64
2018-12-22T05:02:37.925Z,1003.58
2018-12-22T05:03:37.902Z,1003.68
2018-12-22T05:04:37.892Z,1003.65
2018-12-22T05:05:37.881Z,1003.77
2018-12-22T05:06:37.849Z,1003.77
2018-12-22T05:07:37.824Z,1003.74
2018-12-22T05:08:37.814Z,1003.76
2018-12-22T05:09:37.788Z,1003.70
2018-12-22T05:10:37.782Z,1003.76
2018-12-22T05:11:37.749Z,1003.76
2018-12-22T05:12:37.730Z,1003.80
2018-12-22T05:13:37.712Z,1003.84
2018-12-22T05:14:37.706Z,1003.90
2018-12-22T05:15:37.699Z,1003.82
2018-12-22T05:16:37.656Z,1003.82
2018-12-22T05:17:37.637Z,1003.91
2018-12-22T05:18:37.615Z,1003.85
2018-12-22T05:19:37.595Z,1003.94
2018-12-22T05:20:37.599Z,1003.99
2018-12-22T05:21:37.564Z,1004.08
2018-12-22T05:22:37.542Z,1003.92
2018-12-22T05:23:37.527Z,1004.10
2018-12-22T05:24:37.503Z,1004.06
2018-12-22T05:25:37.482Z,1004.13
2018-12-22T05:26:37.478Z,1004.07
2018-12-22T05:27:37.442Z,1004.13
2018-12-22T05:28:37.427Z,1004.14
2018-12-22T05:29:37.408Z,1004.13
2018-12-22T05:30:37.384Z,1004.20
2018-12-22T05:31:37.384Z,1004.20
2018-12-22T05:32:37.340Z,1004.18
2018-12-22T05:33:37.331Z,1004.18
2018-12-22T05:34:37.310Z,1004.20
2018-12-22T05:35:37.296Z,1004.23
2018-12-22T05:36:37.300Z,1004.24
2018-12-22T05:37:37.270Z,1004.30
2018-12-22T05:38:37.250Z,1004.23
2018-12-22T05:39:37.219Z,1004.39
2018-12-22T05:40:37.203Z,1004.25
2018-12-22T05:41:37.178Z,1004.28
2018-12-22T05:42:37.164Z,1004.38
2018-12-22T05:43:37.153Z,1004.35
2018-12-22T05:44:37.121Z,1004.39
2018-12-22T05:45:37.098Z,1004.45
2018-12-22T05:46:37.082Z,1004.44
2018-12-22T05:47:37.056Z,1004.49
2018-12-22T05:48:37.071Z,1004.45
2018-12-22T05:49:37.024Z,1004.45
2018-12-22T05:50:37.003Z,1004.58
2018-12-22T05:51:36.992Z,1004.77
2018-12-22T05:52:36.969Z,1004.75
2018-12-22T05:53:36.965Z,1004.80
2018-12-22T05:54:36.955Z,1004.55
2018-12-22T05:55:36.906Z,1004.58
2018-12-22T05:56:36.901Z,1004.52
2018-12-22T05:57:36.879Z,1004.58
2018-12-22T05:58:36.862Z,1004.66
2018-12-22T05:59:36.831Z,1004.63
2018-12-22T06:00:36.832Z,1004.80
2018-12-22T06:01:36.838Z,1004.84
2018-12-22T06:02:36.781Z,1004.84
2018-12-22T06:03:36.758Z,1004.77
2018-12-22T06:04:36.787Z,1004.93
2018-12-22T06:05:36.736Z,1004.85
2018-12-22T06:06:36.699Z,1004.88
2018-12-22T06:07:36.686Z,1004.84
2018-12-22T06:08:36.664Z,1004.84
2018-12-22T06:09:36.641Z,1004.87
2018-12-22T06:10:36.647Z,1004.90
2018-12-22T06:11:36.601Z,1004.78
2018-12-22T06:12:36.579Z,1004.79
2018-12-22T06:13:36.569Z,1004.82
2018-12-22T06:14:36.542Z,1004.80
2018-12-22T06:15:36.554Z,1004.79
2018-12-22T06:16:37.218Z,1004.81
2018-12-22T06:17:36.485Z,1004.89
2018-12-22T06:18:36.466Z,1004.93
2018-12-22T06:19:36.451Z,1004.86
2018-12-22T06:20:36.426Z,1004.97
2018-12-22T06:21:36.425Z,1004.94
2018-12-22T06:22:36.402Z,1004.98
2018-12-22T06:23:36.380Z,1005.08
2018-12-22T06:24:36.357Z,1005.08
2018-12-22T06:25:36.322Z,1005.15
2018-12-22T06:26:36.327Z,1005.15
2018-12-22T06:27:37.263Z,1005.19
2018-12-22T06:28:37.220Z,1005.24
2018-12-22T06:29:36.250Z,1005.24
2018-12-22T06:30:36.231Z,1005.20
2018-12-22T06:31:36.230Z,1005.32
2018-12-22T06:32:36.186Z,1005.32
2018-12-22T06:33:36.758Z,1005.28
2018-12-22T06:34:36.149Z,1005.38
2018-12-22T06:35:36.126Z,1005.39
2018-12-22T06:36:36.111Z,1005.38
2018-12-22T06:37:36.109Z,1005.44
2018-12-22T06:38:36.083Z,1005.41
2018-12-22T06:39:36.051Z,1005.49
2018-12-22T06:40:36.027Z,1005.56
2018-12-22T06:41:36.009Z,1005.60
2018-12-22T06:42:35.998Z,1005.51
2018-12-22T06:43:35.994Z,1005.53
2018-12-22T06:44:35.951Z,1005.61
2018-12-22T06:45:35.951Z,1005.64
2018-12-22T06:46:35.911Z,1005.64
2018-12-22T06:47:35.902Z,1005.56
2018-12-22T06:48:35.921Z,1005.61
2018-12-22T06:49:35.853Z,1005.63
2018-12-22T06:50:35.861Z,1005.62
2018-12-22T06:51:35.820Z,1005.67
2018-12-22T06:52:35.812Z,1005.68
2018-12-22T06:53:35.821Z,1005.73
2018-12-22T06:54:35.754Z,1005.80
2018-12-22T06:55:35.745Z,1005.76
2018-12-22T06:56:35.740Z,1005.91
2018-12-22T06:57:35.704Z,1005.89
2018-12-22T06:58:35.683Z,1005.90
2018-12-22T06:59:35.659Z,1005.92
2018-12-22T07:00:35.638Z,1005.85
2018-12-22T07:01:35.638Z,1005.91
2018-12-22T07:02:35.600Z,1005.98
2018-12-22T07:03:35.584Z,1005.91
2018-12-22T07:04:35.574Z,1006.02
2018-12-22T07:05:35.544Z,1006.05
2018-12-22T07:06:35.547Z,1006.02
2018-12-22T07:07:35.516Z,1005.98
2018-12-22T07:08:35.504Z,1006.01
2018-12-22T07:09:35.467Z,1006.04
2018-12-22T07:10:35.449Z,1006.12
2018-12-22T07:11:35.428Z,1006.15
2018-12-22T07:12:35.407Z,1006.16
2018-12-22T07:13:35.393Z,1006.14
2018-12-22T07:14:35.396Z,1006.17
2018-12-22T07:15:35.373Z,1006.16
2018-12-22T07:16:35.334Z,1006.16
2018-12-22T07:17:35.321Z,1006.23
2018-12-22T07:18:35.298Z,1006.23
2018-12-22T07:19:35.284Z,1006.27
2018-12-22T07:20:35.275Z,1006.32
2018-12-22T07:21:35.244Z,1006.29
2018-12-22T07:22:35.225Z,1006.32
2018-12-22T07:23:35.200Z,1006.26
2018-12-22T07:24:35.197Z,1006.38
2018-12-22T07:25:35.181Z,1006.39
2018-12-22T07:26:35.168Z,1006.36
2018-12-22T07:27:35.146Z,1006.42
2018-12-22T07:28:35.109Z,1006.51
2018-12-22T07:29:35.088Z,1006.57
2018-12-22T07:30:35.074Z,1006.51
2018-12-22T07:31:35.050Z,1006.55
2018-12-22T07:32:35.019Z,1006.55
2018-12-22T07:33:35.073Z,1006.59
2018-12-22T07:34:34.987Z,1006.70
2018-12-22T07:35:35.009Z,1006.61
2018-12-22T07:36:34.953Z,1006.66
2018-12-22T07:37:34.944Z,1006.72
2018-12-22T07:38:34.924Z,1006.77
2018-12-22T07:39:34.919Z,1006.80
2018-12-22T07:40:34.870Z,1006.75
2018-12-22T07:41:34.885Z,1006.80
2018-12-22T07:42:34.838Z,1006.87
2018-12-22T07:43:34.813Z,1006.82
2018-12-22T07:44:34.797Z,1006.82
2018-12-22T07:45:34.886Z,1006.75
2018-12-22T07:46:34.760Z,1006.90
2018-12-22T07:47:34.764Z,1006.82
2018-12-22T07:48:34.732Z,1006.83
2018-12-22T07:49:34.700Z,1006.91
2018-12-22T07:50:34.716Z,1006.88
2018-12-22T07:51:34.676Z,1006.95
2018-12-22T07:52:34.647Z,1006.96
2018-12-22T07:53:34.624Z,1006.96
2018-12-22T07:54:34.605Z,1007.06
2018-12-22T07:55:34.584Z,1007.15
2018-12-22T07:56:34.583Z,1007.15
2018-12-22T07:57:34.661Z,1007.31
2018-12-22T07:58:34.527Z,1007.28
2018-12-22T07:59:34.507Z,1007.28
2018-12-22T08:00:35.219Z,1007.26
2018-12-22T08:01:34.486Z,1007.35
2018-12-22T08:02:34.467Z,1007.43
2018-12-22T08:03:34.463Z,1007.38
2018-12-22T08:04:34.421Z,1007.39
2018-12-22T08:05:38.574Z,1007.47
2018-12-22T08:06:34.374Z,1007.46
2018-12-22T08:07:34.352Z,1007.53
2018-12-22T08:08:34.355Z,1007.66
2018-12-22T08:09:34.317Z,1007.58
2018-12-22T08:10:34.308Z,1007.66
2018-12-22T08:11:34.277Z,1007.70
2018-12-22T08:12:34.259Z,1007.71
2018-12-22T08:13:34.346Z,1007.72
2018-12-22T08:14:34.226Z,1007.65
2018-12-22T08:15:34.210Z,1007.73
2018-12-22T08:16:34.182Z,1007.88
2018-12-22T08:17:34.160Z,1007.86
2018-12-22T08:18:34.144Z,1007.91
2018-12-22T08:19:34.148Z,1007.89
2018-12-22T08:20:34.103Z,1007.90
2018-12-22T08:21:34.092Z,1007.91
2018-12-22T08:22:34.070Z,1007.93
2018-12-22T08:23:34.047Z,1007.96
2018-12-22T08:24:34.059Z,1008.05
2018-12-22T08:25:34.013Z,1008.06
2018-12-22T08:26:33.988Z,1008.07
2018-12-22T08:27:34.003Z,1008.11
2018-12-22T08:28:33.948Z,1008.14
2018-12-22T08:29:33.940Z,1008.07
2018-12-22T08:30:33.930Z,1008.01
2018-12-22T08:31:33.892Z,1008.11
2018-12-22T08:32:33.877Z,1008.21
2018-12-22T08:33:33.860Z,1008.21
2018-12-22T08:34:33.837Z,1008.27
2018-12-22T08:35:33.838Z,1008.09
2018-12-22T08:36:33.791Z,1008.23
2018-12-22T08:37:35.505Z,1008.38
2018-12-22T08:38:33.761Z,1008.29
2018-12-22T08:39:33.744Z,1008.37
2018-12-22T08:40:33.721Z,1008.55
2018-12-22T08:41:33.731Z,1008.43
2018-12-22T08:42:33.697Z,1008.50
2018-12-22T08:43:33.665Z,1008.51
2018-12-22T08:44:33.647Z,1008.57
2018-12-22T08:45:33.643Z,1008.68
2018-12-22T08:46:33.616Z,1008.59
2018-12-22T08:47:33.598Z,1008.62
2018-12-22T08:48:33.569Z,1008.68
2018-12-22T08:49:33.548Z,1008.72
2018-12-22T08:50:33.557Z,1008.75
2018-12-22T08:51:33.518Z,1008.76
2018-12-22T08:52:33.492Z,1008.78
2018-12-22T08:53:33.893Z,1008.84
2018-12-22T08:54:33.455Z,1008.93
2018-12-22T08:55:33.458Z,1008.90
2018-12-22T08:56:33.422Z,1008.94
2018-12-22T08:57:33.420Z,1008.90
2018-12-22T08:58:33.388Z,1008.93
2018-12-22T08:59:33.356Z,1008.95
2018-12-22T09:00:33.338Z,1008.99
2018-12-22T09:01:33.320Z,1008.98
2018-12-22T09:02:33.299Z,1008.97
2018-12-22T09:03:33.311Z,1009.07
2018-12-22T09:04:33.272Z,1009.05
2018-12-22T09:05:33.243Z,1009.13
2018-12-22T09:06:33.231Z,1009.14
2018-12-22T09:07:33.222Z,1009.19
2018-12-22T09:08:33.191Z,1009.21
2018-12-22T09:09:33.188Z,1009.14
2018-12-22T09:10:33.160Z,1009.15
2018-12-22T09:11:33.129Z,1009.26
2018-12-22T09:12:33.112Z,1009.29
2018-12-22T09:13:33.094Z,1009.32
2018-12-22T09:14:33.089Z,1009.34
2018-12-22T09:15:33.055Z,1009.38
2018-12-22T09:16:33.044Z,1009.39
2018-12-22T09:17:33.018Z,1009.38
2018-12-22T09:18:33.002Z,1009.37
2018-12-22T09:19:32.998Z,1009.50
2018-12-22T09:20:32.965Z,1009.55
2018-12-22T09:21:32.943Z,1009.53
2018-12-22T09:22:32.924Z,1009.61
2018-12-22T09:23:32.907Z,1009.60
2018-12-22T09:24:32.903Z,1009.56
2018-12-22T09:25:32.901Z,1009.58
2018-12-22T09:26:32.855Z,1009.62
2018-12-22T09:27:32.838Z,1009.63
2018-12-22T09:28:32.813Z,1009.69
2018-12-22T09:29:32.792Z,1009.66
2018-12-22T09:30:32.772Z,1009.52
2018-12-22T09:31:33.199Z,1009.63
2018-12-22T09:32:32.738Z,1009.59
2018-12-22T09:33:32.720Z,1009.67
2018-12-22T09:34:32.727Z,1009.65
2018-12-22T09:35:32.680Z,1009.58
2018-12-22T09:36:32.655Z,1009.63
2018-12-22T09:37:32.684Z,1009.70
2018-12-22T09:38:32.622Z,1009.73
2018-12-22T09:39:32.601Z,1009.84
2018-12-22T09:40:32.602Z,1009.73
2018-12-22T09:41:32.564Z,1009.86
2018-12-22T09:42:32.564Z,1009.86
2018-12-22T09:43:32.521Z,1009.93
2018-12-22T09:44:32.509Z,1009.94
2018-12-22T09:45:32.488Z,1009.96
2018-12-22T09:46:32.485Z,1009.97
2018-12-22T09:47:32.450Z,1009.97
2018-12-22T09:48:32.462Z,1010.00
2018-12-22T09:49:32.438Z,1010.04
2018-12-22T09:50:32.397Z,1009.97
2018-12-22T09:51:32.378Z,1010.02
2018-12-22T09:52:32.365Z,1010.01
2018-12-22T09:53:32.363Z,1010.04
2018-12-22T09:54:32.324Z,1010.01
2018-12-22T09:55:32.305Z,1010.07
2018-12-22T09:56:32.288Z,1010.02
2018-12-22T09:57:32.268Z,1010.10
2018-12-22T09:58:32.250Z,1010.08
2018-12-22T09:59:32.248Z,1010.10
2018-12-22T10:00:32.217Z,1010.14
2018-12-22T10:01:32.194Z,1010.09
2018-12-22T10:02:32.172Z,1010.11
2018-12-22T10:03:32.162Z,1010.13
2018-12-22T10:04:32.146Z,1010.15
2018-12-22T10:05:32.133Z,1010.17
2018-12-22T10:06:32.117Z,1010.22
2018-12-22T10:07:32.084Z,1010.17
2018-12-22T10:08:32.070Z,1010.09
2018-12-22T10:09:32.048Z,1010.14
2018-12-22T10:10:32.043Z,1010.12
2018-12-22T10:11:32.008Z,1010.17
2018-12-22T10:12:31.997Z,1010.17
2018-12-22T10:13:31.975Z,1010.17
2018-12-22T10:14:31.957Z,1010.14
2018-12-22T10:15:31.960Z,1010.14
2018-12-22T10:16:31.925Z,1010.15
2018-12-22T10:17:31.902Z,1010.12
2018-12-22T10:18:31.883Z,1010.22
2018-12-22T10:19:31.882Z,1010.20
2018-12-22T10:20:31.860Z,1010.22
2018-12-22T10:21:31.843Z,1010.19
2018-12-22T10:22:31.813Z,1010.18
2018-12-22T10:23:31.795Z,1010.28
2018-12-22T10:24:31.777Z,1010.24
2018-12-22T10:25:31.759Z,1010.20
2018-12-22T10:26:31.738Z,1010.19
2018-12-22T10:27:31.763Z,1010.18
2018-12-22T10:28:31.706Z,1010.25
2018-12-22T10:29:31.699Z,1010.22
2018-12-22T10:30:31.664Z,1010.24
2018-12-22T10:31:31.644Z,1010.25
2018-12-22T10:32:34.260Z,1010.29
2018-12-22T10:33:31.611Z,1010.33
2018-12-22T10:34:31.601Z,1010.37
2018-12-22T10:35:31.591Z,1010.30
2018-12-22T10:36:31.565Z,1010.26
2018-12-22T10:37:31.557Z,1010.31
2018-12-22T10:38:31.523Z,1010.32
2018-12-22T10:39:31.507Z,1010.27
2018-12-22T10:40:31.488Z,1010.33
2018-12-22T10:41:31.466Z,1010.27
2018-12-22T10:42:31.473Z,1010.31
2018-12-22T10:43:31.431Z,1010.28
2018-12-22T10:44:31.419Z,1010.30
2018-12-22T10:45:31.398Z,1010.31
2018-12-22T10:46:31.374Z,1010.38
2018-12-22T10:47:31.369Z,1010.29
2018-12-22T10:48:31.352Z,1010.35
2018-12-22T10:49:31.340Z,1010.32
2018-12-22T10:50:31.307Z,1010.29
2018-12-22T10:51:31.290Z,1010.32
2018-12-22T10:52:31.272Z,1010.38
2018-12-22T10:53:31.261Z,1010.39
2018-12-22T10:54:31.230Z,1010.40
2018-12-22T10:55:31.765Z,1010.40
2018-12-22T10:56:31.198Z,1010.38
2018-12-22T10:57:31.175Z,1010.40
2018-12-22T10:58:31.155Z,1010.44
2018-12-22T10:59:31.132Z,1010.46
2018-12-22T11:00:31.161Z,1010.48
2018-12-22T11:01:31.098Z,1010.55
2018-12-22T11:02:31.081Z,1010.45
2018-12-22T11:03:32.069Z,1010.45
2018-12-22T11:04:31.043Z,1010.50
2018-12-22T11:05:31.023Z,1010.47
2018-12-22T11:06:31.033Z,1010.48
2018-12-22T11:07:30.993Z,1010.46
2018-12-22T11:08:30.965Z,1010.46
2018-12-22T11:09:30.954Z,1010.52
2018-12-22T11:10:30.946Z,1010.47
2018-12-22T11:11:30.914Z,1010.47
2018-12-22T11:12:30.922Z,1010.44
2018-12-22T11:13:30.877Z,1010.50
2018-12-22T11:14:30.862Z,1010.54
2018-12-22T11:15:30.841Z,1010.49
2018-12-22T11:16:30.835Z,1010.55
2018-12-22T11:17:30.802Z,1010.57
2018-12-22T11:18:30.789Z,1010.58
2018-12-22T11:19:30.765Z,1010.56
2018-12-22T11:20:30.755Z,1010.62
2018-12-22T11:21:30.735Z,1010.63
2018-12-22T11:22:30.730Z,1010.71
2018-12-22T11:23:30.695Z,1010.69
2018-12-22T11:24:30.673Z,1010.68
2018-12-22T11:25:30.658Z,1010.72
2018-12-22T11:26:30.639Z,1010.67
2018-12-22T11:27:30.638Z,1010.74
2018-12-22T11:28:30.604Z,1010.70
2018-12-22T11:29:30.578Z,1010.70
2018-12-22T11:30:30.573Z,1010.69
2018-12-22T11:31:34.980Z,1010.74
2018-12-22T11:32:30.535Z,1010.74
2018-12-22T11:33:30.520Z,1010.79
2018-12-22T11:34:30.531Z,1010.77
2018-12-22T11:35:30.465Z,1010.76
2018-12-22T11:36:30.464Z,1010.85
2018-12-22T11:37:30.437Z,1010.83
2018-12-22T11:38:30.447Z,1010.84
2018-12-22T11:39:30.414Z,1010.88
2018-12-22T11:40:30.415Z,1010.90
2018-12-22T11:41:30.371Z,1010.92
2018-12-22T11:42:30.345Z,1010.93
2018-12-22T11:43:30.325Z,1010.94
2018-12-22T11:44:30.305Z,1010.94
2018-12-22T11:45:30.306Z,1011.00
2018-12-22T11:46:30.273Z,1010.91
2018-12-22T11:47:30.253Z,1010.97
2018-12-22T11:51:54.244Z,1010.96
2018-12-22T11:52:54.225Z,1010.95
2018-12-22T11:53:54.234Z,1010.95
2018-12-22T11:54:54.196Z,1011.00
2018-12-22T11:55:54.186Z,1010.98
2018-12-22T11:56:54.149Z,1010.99
2018-12-22T11:57:54.132Z,1010.99
2018-12-22T11:58:54.119Z,1010.97
2018-12-22T11:59:54.109Z,1011.01
2018-12-22T12:00:54.084Z,1011.01
2018-12-22T12:01:54.079Z,1011.05
2018-12-22T12:02:54.043Z,1011.05
2018-12-22T12:03:54.028Z,1011.07
2018-12-22T12:04:54.006Z,1011.07
2018-12-22T12:05:53.985Z,1011.05
2018-12-22T12:06:53.977Z,1011.04
2018-12-22T12:07:53.966Z,1011.09
2018-12-22T12:08:53.934Z,1011.13